createdAt,value
2024-03-06T00:01:48.787Z,95043.28
2024-03-06T00:04:20.094Z,95046.28
2024-03-06T00:06:52.572Z,95035.59
2024-03-06T00:09:20.749Z,95044.00
2024-03-06T00:11:48.890Z,95040.00
2024-03-06T00:14:16.909Z,95047.34
2024-03-06T00:16:45.311Z,95047.97
2024-03-06T00:19:13.274Z,95050.44
2024-03-06T00:21:41.251Z,95051.63
2024-03-06T00:24:10.706Z,95056.66
2024-03-06T00:26:38.690Z,95055.38
2024-03-06T00:29:06.808Z,95045.31
2024-03-06T00:31:34.799Z,95041.34
2024-03-06T00:34:02.713Z,95048.34
2024-03-06T00:36:30.756Z,95047.38
2024-03-06T00:38:58.719Z,95051.78
2024-03-06T00:41:28.898Z,95049.88
2024-03-06T00:43:56.901Z,95037.94
2024-03-06T00:46:25.620Z,95041.16
2024-03-06T00:48:53.654Z,95038.09
2024-03-06T00:51:32.428Z,95043.13
2024-03-06T00:54:05.724Z,95045.91
2024-03-06T00:56:39.402Z,95038.31
2024-03-06T00:59:07.701Z,95048.81
2024-03-06T01:01:35.881Z,95044.34
2024-03-06T01:04:03.881Z,95041.19
2024-03-06T01:06:31.842Z,95041.91
2024-03-06T01:08:59.901Z,95042.09
2024-03-06T01:11:28.454Z,95038.00
2024-03-06T01:13:57.851Z,95036.09
2024-03-06T01:16:25.811Z,95039.19
2024-03-06T01:18:53.905Z,95036.03
2024-03-06T01:21:22.008Z,95026.72
2024-03-06T01:23:49.974Z,95040.03
2024-03-06T01:26:18.780Z,95044.91
2024-03-06T01:28:46.801Z,95032.88
2024-03-06T01:31:16.172Z,95033.91
2024-03-06T01:33:44.111Z,95025.47
2024-03-06T01:36:12.084Z,95036.63
2024-03-06T01:38:40.512Z,95039.28
2024-03-06T01:41:09.161Z,95038.88
2024-03-06T01:43:40.518Z,95040.78
2024-03-06T01:46:08.589Z,95031.06
2024-03-06T01:48:38.608Z,95027.09
2024-03-06T01:51:06.880Z,95019.75
2024-03-06T01:53:35.381Z,95020.88
2024-03-06T01:56:05.090Z,95024.31
2024-03-06T01:58:35.078Z,95020.50
2024-03-06T02:01:03.701Z,95022.41
2024-03-06T02:03:33.872Z,95025.31
2024-03-06T02:06:04.594Z,95017.03
2024-03-06T02:08:33.439Z,95017.84
2024-03-06T02:11:03.521Z,95014.34
2024-03-06T02:13:31.862Z,95016.19
2024-03-06T02:15:59.861Z,95010.28
2024-03-06T02:18:27.945Z,95011.00
2024-03-06T02:20:56.623Z,95010.06
2024-03-06T02:23:24.706Z,95017.38
2024-03-06T02:25:53.000Z,95014.44
2024-03-06T02:28:21.039Z,95019.91
2024-03-06T02:30:52.202Z,95023.56
2024-03-06T02:33:20.950Z,95024.31
2024-03-06T02:35:49.092Z,95017.69
2024-03-06T02:38:18.640Z,95025.09
2024-03-06T02:40:46.670Z,95025.00
2024-03-06T02:43:14.582Z,95024.53
2024-03-06T02:45:42.527Z,95026.44
2024-03-06T02:48:11.645Z,95045.53
2024-03-06T02:50:40.011Z,95041.09
2024-03-06T02:53:08.367Z,95034.03
2024-03-06T02:55:38.411Z,95032.78
2024-03-06T02:58:06.439Z,95034.19
2024-03-06T03:00:34.401Z,95030.19
2024-03-06T03:03:02.416Z,95034.50
2024-03-06T03:05:29.415Z,95027.28
2024-03-06T03:07:57.425Z,95042.19
2024-03-06T03:10:25.985Z,95043.44
2024-03-06T03:12:55.948Z,95046.06
2024-03-06T03:15:23.883Z,95040.75
2024-03-06T03:17:51.853Z,95028.88
2024-03-06T03:20:19.984Z,95038.41
2024-03-06T03:22:48.088Z,95023.75
2024-03-06T03:25:16.246Z,95030.31
2024-03-06T03:27:44.910Z,95030.31
2024-03-06T03:30:14.608Z,95030.00
2024-03-06T03:32:42.617Z,95036.09
2024-03-06T03:35:10.758Z,95034.06
2024-03-06T03:37:38.804Z,95037.03
2024-03-06T03:40:08.371Z,95032.56
2024-03-06T03:42:36.759Z,95035.16
2024-03-06T03:45:05.528Z,95038.16
2024-03-06T03:47:35.040Z,95041.75
2024-03-06T03:50:10.028Z,95041.69
2024-03-06T03:52:42.908Z,95046.44
2024-03-06T03:55:11.888Z,95040.69
2024-03-06T03:57:39.921Z,95035.56
2024-03-06T04:00:12.315Z,95040.75
2024-03-06T04:02:42.139Z,95040.56
2024-03-06T04:05:11.855Z,95044.34
2024-03-06T04:07:40.032Z,95052.72
2024-03-06T04:10:12.151Z,95047.66
2024-03-06T04:12:40.942Z,95060.56
2024-03-06T04:15:09.863Z,95051.38
2024-03-06T04:17:38.502Z,95049.78
2024-03-06T04:20:09.053Z,95053.06
2024-03-06T04:22:37.523Z,95060.13
2024-03-06T04:25:06.290Z,95055.25
2024-03-06T04:27:34.944Z,95059.97
2024-03-06T04:30:03.042Z,95061.56
2024-03-06T04:32:31.082Z,95066.00
2024-03-06T04:34:59.756Z,95067.78
2024-03-06T04:37:30.725Z,95077.31
2024-03-06T04:39:58.892Z,95072.72
2024-03-06T04:42:26.837Z,95066.38
2024-03-06T04:44:54.733Z,95073.81
2024-03-06T04:47:22.675Z,95076.84
2024-03-06T04:49:51.195Z,95072.72
2024-03-06T04:52:19.238Z,95079.19
2024-03-06T04:54:48.660Z,95082.59
2024-03-06T04:57:16.645Z,95081.34
2024-03-06T04:59:44.526Z,95088.47
2024-03-06T05:02:12.547Z,95089.44
2024-03-06T06:00:00.914Z,95142.06
2024-03-06T06:02:28.853Z,95149.09
2024-03-06T06:05:11.450Z,95144.72
2024-03-06T06:07:44.807Z,95149.06
2024-03-06T06:10:12.888Z,95151.81
2024-03-06T06:12:40.805Z,95154.25
2024-03-06T06:15:11.765Z,95154.91
2024-03-06T06:17:39.875Z,95157.75
2024-03-06T06:20:10.965Z,95161.56
2024-03-06T06:22:39.355Z,95170.94
2024-03-06T06:25:08.491Z,95160.88
2024-03-06T06:27:36.578Z,95167.31
2024-03-06T06:30:06.954Z,95176.25
2024-03-06T06:32:37.238Z,95174.88
2024-03-06T06:35:06.647Z,95175.00
2024-03-06T06:37:35.282Z,95176.66
2024-03-06T06:40:08.164Z,95180.59
2024-03-06T06:42:37.174Z,95183.16
2024-03-06T06:45:07.691Z,95177.94
2024-03-06T06:47:37.589Z,95182.75
2024-03-06T06:50:07.347Z,95181.28
2024-03-06T06:52:35.804Z,95187.66
2024-03-06T06:55:05.062Z,95187.44
2024-03-06T06:57:34.031Z,95183.78
2024-03-06T07:00:04.037Z,95182.28
2024-03-06T07:02:32.105Z,95187.28
2024-03-06T07:05:01.506Z,95189.81
2024-03-06T07:07:29.548Z,95189.75
2024-03-06T07:09:57.737Z,95190.47
2024-03-06T07:12:26.521Z,95200.28
2024-03-06T07:14:54.521Z,95196.28
2024-03-06T07:17:22.528Z,95206.69
2024-03-06T07:19:50.712Z,95206.59
2024-03-06T07:22:20.151Z,95199.47
2024-03-06T07:24:48.140Z,95208.31
2024-03-06T07:27:16.157Z,95209.41
2024-03-06T07:29:44.160Z,95211.53
2024-03-06T07:32:12.301Z,95204.63
2024-03-06T07:34:40.301Z,95202.00
2024-03-06T07:37:08.258Z,95201.31
2024-03-06T07:39:37.640Z,95212.56
2024-03-06T07:42:06.207Z,95215.38
2024-03-06T07:44:36.614Z,95219.50
2024-03-06T07:47:04.757Z,95217.16
2024-03-06T07:49:33.153Z,95217.22
2024-03-06T07:52:01.142Z,95220.66
2024-03-06T07:54:29.084Z,95230.03
2024-03-06T07:56:58.416Z,95224.81
2024-03-06T07:59:26.646Z,95227.97
2024-03-06T08:01:55.959Z,95229.56
2024-03-06T08:04:24.408Z,95236.25
2024-03-06T08:06:52.324Z,95236.28
2024-03-06T08:09:21.030Z,95236.69
2024-03-06T08:11:50.246Z,95241.66
2024-03-06T08:14:19.640Z,95248.44
2024-03-06T08:16:47.732Z,95254.03
2024-03-06T08:19:16.112Z,95255.91
2024-03-06T08:21:44.056Z,95257.03
2024-03-06T08:24:12.105Z,95256.78
2024-03-06T08:26:40.130Z,95249.34
2024-03-06T08:29:08.241Z,95259.66
2024-03-06T08:31:37.605Z,95259.56
2024-03-06T08:34:06.313Z,95257.22
2024-03-06T08:36:34.696Z,95265.63
2024-03-06T08:39:02.662Z,95264.94
2024-03-06T08:41:30.707Z,95259.13
2024-03-06T08:43:58.769Z,95265.81
2024-03-06T08:46:27.008Z,95267.34
2024-03-06T08:48:56.483Z,95266.69
2024-03-06T08:51:24.788Z,95268.63
2024-03-06T08:53:52.797Z,95268.72
2024-03-06T08:56:20.921Z,95265.94
2024-03-06T08:58:48.959Z,95275.59
2024-03-06T09:01:17.000Z,95277.69
2024-03-06T09:03:44.939Z,95273.69
2024-03-06T09:06:14.297Z,95281.59
2024-03-06T09:08:42.278Z,95281.09
2024-03-06T09:11:10.276Z,95286.91
2024-03-06T09:13:38.884Z,95290.56
2024-03-06T09:16:07.416Z,95291.63
2024-03-06T09:18:35.436Z,95294.75
2024-03-06T09:21:03.937Z,95304.09
2024-03-06T09:23:34.208Z,95296.16
2024-03-06T09:26:02.878Z,95299.22
2024-03-06T09:28:30.907Z,95306.38
2024-03-06T09:30:59.154Z,95297.53
2024-03-06T09:33:27.191Z,95301.91
2024-03-06T09:35:55.313Z,95304.09
2024-03-06T09:38:23.396Z,95308.97
2024-03-06T09:40:53.200Z,95306.28
2024-03-06T09:43:21.149Z,95305.34
2024-03-06T09:45:50.811Z,95307.78
2024-03-06T09:48:22.944Z,95315.38
2024-03-06T09:50:51.573Z,95317.06
2024-03-06T09:53:20.988Z,95315.09
2024-03-06T09:55:50.236Z,95319.25
2024-03-06T09:58:20.234Z,95318.88
2024-03-06T10:00:49.100Z,95324.78
2024-03-06T10:03:17.653Z,95325.66
2024-03-06T10:05:46.188Z,95327.31
2024-03-06T10:08:17.700Z,95331.09
2024-03-06T10:10:47.183Z,95331.13
2024-03-06T10:13:15.240Z,95325.16
2024-03-06T10:15:44.684Z,95330.00
2024-03-06T10:18:14.590Z,95324.53
2024-03-06T10:20:45.613Z,95332.34
2024-03-06T10:23:14.317Z,95327.59
2024-03-06T10:25:44.950Z,95328.69
2024-03-06T10:28:14.123Z,95333.56
2024-03-06T10:30:45.137Z,95331.44
2024-03-06T10:33:14.432Z,95336.19
2024-03-06T10:35:43.692Z,95345.56
2024-03-06T10:38:13.078Z,95340.88
2024-03-06T10:40:42.591Z,95344.13
2024-03-06T10:43:11.544Z,95339.00
2024-03-06T10:45:46.194Z,95350.03
2024-03-06T10:48:15.122Z,95349.16
2024-03-06T10:50:45.621Z,95347.72
2024-03-06T10:53:16.655Z,95348.44
2024-03-06T10:55:47.076Z,95352.03
2024-03-06T10:58:15.393Z,95352.75
2024-03-06T11:00:47.319Z,95348.06
2024-03-06T11:03:18.026Z,95356.72
2024-03-06T11:05:48.641Z,95358.16
2024-03-06T11:08:18.754Z,95353.66
2024-03-06T11:10:47.224Z,95347.34
2024-03-06T11:13:27.011Z,95347.53
2024-03-06T11:16:00.399Z,95357.81
2024-03-06T11:18:44.683Z,95358.34
2024-03-06T11:21:32.537Z,95361.59
2024-03-06T11:24:23.655Z,95358.69
2024-03-06T11:26:53.222Z,95354.22
2024-03-06T11:29:22.432Z,95364.47
2024-03-06T11:32:09.898Z,95356.72
2024-03-06T11:34:39.243Z,95352.41
2024-03-06T11:37:11.142Z,95356.34
2024-03-06T11:39:42.569Z,95361.22
2024-03-06T11:42:11.081Z,95360.34
2024-03-06T11:44:39.213Z,95362.84
2024-03-06T11:47:10.824Z,95360.13
2024-03-06T11:49:39.828Z,95359.78
2024-03-06T11:52:10.100Z,95361.75
2024-03-06T11:54:38.546Z,95369.31
2024-03-06T11:57:07.453Z,95364.81
2024-03-06T11:59:36.617Z,95360.69
2024-03-06T12:02:06.849Z,95367.91
2024-03-06T12:04:39.467Z,95360.69
2024-03-06T12:07:08.337Z,95373.66
2024-03-06T12:09:41.111Z,95370.03
2024-03-06T12:12:12.148Z,95375.81
2024-03-06T12:14:41.864Z,95377.03
2024-03-06T12:17:15.665Z,95370.59
2024-03-06T12:19:46.487Z,95377.66
2024-03-06T12:22:15.767Z,95376.19
2024-03-06T12:24:43.965Z,95369.31
2024-03-06T12:27:14.015Z,95371.81
2024-03-06T12:29:43.294Z,95376.00
2024-03-06T12:32:18.327Z,95378.34
2024-03-06T12:34:58.454Z,95380.47
2024-03-06T12:37:34.234Z,95379.38
2024-03-06T12:40:05.398Z,95376.13
2024-03-06T12:42:33.627Z,95381.91
2024-03-06T12:45:01.700Z,95381.19
2024-03-06T12:47:29.818Z,95391.66
2024-03-06T12:50:00.424Z,95386.75
2024-03-06T12:52:28.528Z,95389.47
2024-03-06T12:54:56.488Z,95392.38
2024-03-06T12:57:24.429Z,95379.19
2024-03-06T12:59:52.472Z,95386.03
2024-03-06T13:02:20.547Z,95393.16
2024-03-06T13:04:48.651Z,95396.38
2024-03-06T13:07:18.066Z,95389.84
2024-03-06T13:09:46.074Z,95394.94
2024-03-06T13:12:14.052Z,95390.56
2024-03-06T13:14:42.414Z,95381.91
2024-03-06T13:17:10.514Z,95379.94
2024-03-06T13:19:38.532Z,95376.19
2024-03-06T13:22:08.445Z,95384.25
2024-03-06T13:24:42.258Z,95380.28
2024-03-06T13:27:12.176Z,95380.47
2024-03-06T13:29:40.758Z,95382.41
2024-03-06T13:32:09.019Z,95386.19
2024-03-06T13:34:37.008Z,95384.81
2024-03-06T13:37:07.577Z,95384.75
2024-03-06T13:39:35.631Z,95381.16
2024-03-06T13:42:07.008Z,95384.34
2024-03-06T13:44:35.340Z,95383.31
2024-03-06T13:47:03.592Z,95385.81
2024-03-06T13:49:39.325Z,95371.81
2024-03-06T13:52:08.236Z,95375.41
2024-03-06T13:54:36.384Z,95376.38
2024-03-06T13:57:05.893Z,95376.22
2024-03-06T13:59:34.123Z,95374.22
2024-03-06T14:02:02.502Z,95373.81
2024-03-06T14:04:30.682Z,95370.56
2024-03-06T14:06:59.740Z,95375.59
2024-03-06T14:09:28.243Z,95377.22
2024-03-06T14:11:56.410Z,95379.19
2024-03-06T14:14:25.795Z,95377.56
2024-03-06T14:16:53.900Z,95381.75
2024-03-06T14:19:22.741Z,95384.50
2024-03-06T14:21:50.958Z,95388.63
2024-03-06T14:24:19.681Z,95392.34
2024-03-06T14:26:49.445Z,95386.19
2024-03-06T14:29:17.586Z,95392.56
2024-03-06T14:31:46.909Z,95400.94
2024-03-06T14:34:15.253Z,95397.25
2024-03-06T14:36:43.563Z,95395.88
2024-03-06T14:39:12.427Z,95400.00
2024-03-06T14:41:40.491Z,95399.09
2024-03-06T14:44:08.487Z,95395.84
2024-03-06T14:46:36.586Z,95408.28
2024-03-06T14:49:05.996Z,95411.16
2024-03-06T14:51:34.008Z,95407.75
2024-03-06T14:54:01.978Z,95400.53
2024-03-06T14:56:31.923Z,95405.38
2024-03-06T14:59:02.831Z,95405.91
2024-03-06T15:01:31.043Z,95408.22
2024-03-06T15:03:59.567Z,95406.81
2024-03-06T15:06:28.958Z,95415.53
2024-03-06T15:08:57.431Z,95410.28
2024-03-06T15:11:25.691Z,95410.06
2024-03-06T15:13:54.470Z,95411.38
2024-03-06T15:16:22.696Z,95411.53
2024-03-06T15:18:52.145Z,95417.81
2024-03-06T15:21:22.518Z,95417.78
2024-03-06T15:23:53.991Z,95417.91
2024-03-06T15:26:22.124Z,95419.63
2024-03-06T15:28:50.625Z,95422.91
2024-03-06T15:31:19.107Z,95421.53
2024-03-06T15:33:48.267Z,95422.72
2024-03-06T15:36:16.507Z,95422.34
2024-03-06T15:38:44.519Z,95428.66
2024-03-06T15:41:14.057Z,95423.47
2024-03-06T15:43:42.081Z,95422.91
2024-03-06T15:46:10.617Z,95426.81
2024-03-06T15:48:38.626Z,95424.00
2024-03-06T15:51:07.218Z,95423.06
2024-03-06T15:53:35.321Z,95427.72
2024-03-06T15:56:03.403Z,95431.00
2024-03-06T15:58:32.749Z,95436.78
2024-03-06T16:01:02.546Z,95436.44
2024-03-06T16:03:31.817Z,95430.22
2024-03-06T16:06:10.418Z,95427.38
2024-03-06T16:08:44.094Z,95434.34
2024-03-06T16:11:12.537Z,95440.03
2024-03-06T16:13:42.273Z,95444.72
2024-03-06T16:16:10.519Z,95450.31
2024-03-06T16:18:38.607Z,95445.78
2024-03-06T16:21:07.923Z,95450.84
2024-03-06T16:23:35.930Z,95457.28
2024-03-06T16:26:04.047Z,95457.50
2024-03-06T16:28:32.118Z,95451.94
2024-03-06T16:31:01.422Z,95461.31
2024-03-06T16:33:29.509Z,95459.06
2024-03-06T16:35:57.685Z,95464.63
2024-03-06T16:38:25.742Z,95472.03
2024-03-06T16:40:54.098Z,95471.44
2024-03-06T16:43:22.177Z,95477.69
2024-03-06T16:45:50.461Z,95479.53
2024-03-06T16:48:20.071Z,95474.25
2024-03-06T16:50:48.255Z,95476.34
2024-03-06T16:53:16.334Z,95475.63
2024-03-06T16:55:44.561Z,95476.25
2024-03-06T16:58:12.608Z,95473.97
2024-03-06T17:00:42.090Z,95473.25
2024-03-06T17:03:10.116Z,95477.03
2024-03-06T17:05:39.534Z,95482.81
2024-03-06T17:08:07.881Z,95480.13
2024-03-06T17:10:35.887Z,95482.50
2024-03-06T17:13:04.529Z,95492.03
2024-03-06T17:15:33.184Z,95486.66
2024-03-06T17:18:01.693Z,95493.91
2024-03-06T17:20:29.857Z,95495.78
2024-03-06T17:22:59.728Z,95500.03
2024-03-06T17:25:27.687Z,95503.16
2024-03-06T17:27:55.661Z,95518.72
2024-03-06T17:30:24.052Z,95508.84
2024-03-06T17:32:52.973Z,95505.97
2024-03-06T17:35:21.227Z,95512.47
2024-03-06T17:37:49.735Z,95517.28
2024-03-06T17:40:19.614Z,95516.81
2024-03-06T17:42:47.641Z,95517.59
2024-03-06T17:45:15.674Z,95524.53
2024-03-06T17:47:43.878Z,95519.72
2024-03-06T17:50:14.933Z,95533.22
2024-03-06T17:52:42.999Z,95532.47
2024-03-06T17:55:11.221Z,95525.00
2024-03-06T17:57:46.375Z,95527.94
2024-03-06T18:00:16.221Z,95518.25
2024-03-06T18:02:44.888Z,95519.53
2024-03-06T18:05:13.699Z,95513.84
2024-03-06T18:07:45.161Z,95516.34
2024-03-06T18:10:14.275Z,95516.59
2024-03-06T18:12:44.311Z,95509.38
2024-03-06T18:15:12.560Z,95512.19
2024-03-06T18:17:40.622Z,95518.69
2024-03-06T18:20:10.382Z,95518.91
2024-03-06T18:22:38.751Z,95529.56
2024-03-06T18:25:07.501Z,95536.72
2024-03-06T18:27:36.024Z,95539.88
2024-03-06T18:30:07.057Z,95539.56
2024-03-06T18:32:35.274Z,95540.94
2024-03-06T18:35:04.066Z,95539.28
2024-03-06T18:37:32.267Z,95534.56
2024-03-06T18:40:00.367Z,95538.28
2024-03-06T18:42:28.647Z,95542.00
2024-03-06T18:45:47.462Z,95539.09
2024-03-06T18:48:15.583Z,95544.50
2024-03-06T18:50:43.724Z,95543.72
2024-03-06T18:53:12.034Z,95542.75
2024-03-06T18:55:40.232Z,95547.97
2024-03-06T18:58:08.322Z,95545.31
2024-03-06T19:00:36.479Z,95548.75
2024-03-06T19:03:07.261Z,95547.94
2024-03-06T19:05:35.482Z,95549.25
2024-03-06T19:08:03.734Z,95549.09
2024-03-06T19:10:32.281Z,95556.00
2024-03-06T19:13:00.584Z,95552.66
2024-03-06T19:15:28.829Z,95546.94
2024-03-06T19:17:57.291Z,95561.13
2024-03-06T19:20:27.359Z,95553.16
2024-03-06T19:22:55.497Z,95548.13
2024-03-06T19:25:23.685Z,95543.97
2024-03-06T19:27:52.304Z,95550.69
2024-03-06T19:30:20.709Z,95560.44
2024-03-06T19:32:54.665Z,95558.19
2024-03-06T19:35:26.679Z,95560.66
2024-03-06T19:37:55.108Z,95555.78
2024-03-06T19:40:23.203Z,95561.88
2024-03-06T19:42:51.560Z,95561.66
2024-03-06T19:45:20.129Z,95562.06
2024-03-06T19:47:49.073Z,95563.94
2024-03-06T19:50:17.455Z,95565.13
2024-03-06T19:52:50.791Z,95560.13
2024-03-06T19:55:20.942Z,95561.81
2024-03-06T19:57:49.545Z,95558.09
2024-03-06T20:00:20.416Z,95559.63
2024-03-06T20:02:48.644Z,95562.25
2024-03-06T20:05:16.890Z,95562.91
2024-03-06T20:07:46.337Z,95563.13
2024-03-06T20:10:14.585Z,95571.66
2024-03-06T20:12:42.869Z,95576.69
2024-03-06T20:15:11.410Z,95573.09
2024-03-06T20:17:40.008Z,95577.06
2024-03-06T20:20:12.128Z,95582.41
2024-03-06T20:22:40.593Z,95573.84
2024-03-06T20:25:11.542Z,95578.06
2024-03-06T20:27:39.798Z,95582.94
2024-03-06T20:30:09.749Z,95574.78
2024-03-06T20:32:37.904Z,95575.72
2024-03-06T20:35:07.333Z,95580.72
2024-03-06T20:37:35.418Z,95578.94
2024-03-06T20:40:03.978Z,95579.19
2024-03-06T20:42:33.784Z,95580.09
2024-03-06T20:45:01.877Z,95579.56
2024-03-06T20:47:31.230Z,95569.63
2024-03-06T20:49:59.354Z,95576.41
2024-03-06T20:52:27.555Z,95572.66
2024-03-06T20:54:55.780Z,95577.06
2024-03-06T20:57:23.861Z,95575.03
2024-03-06T20:59:53.813Z,95574.25
2024-03-06T21:02:21.995Z,95576.13
2024-03-06T21:04:50.227Z,95575.16
2024-03-06T21:07:18.433Z,95575.19
2024-03-06T21:09:46.465Z,95571.66
2024-03-06T21:12:14.880Z,95575.47
2024-03-06T21:14:43.390Z,95563.75
2024-03-06T21:17:12.922Z,95568.81
2024-03-06T21:19:41.521Z,95569.31
2024-03-06T21:22:10.029Z,95565.97
2024-03-06T21:24:38.596Z,95568.19
2024-03-06T21:27:07.909Z,95562.38
2024-03-06T21:29:36.075Z,95567.88
2024-03-06T21:32:05.374Z,95566.59
2024-03-06T21:34:34.927Z,95556.56
2024-03-06T21:37:02.963Z,95556.50
2024-03-06T21:39:31.155Z,95554.22
2024-03-06T21:41:59.671Z,95561.97
2024-03-06T21:44:29.051Z,95555.50
2024-03-06T21:46:57.832Z,95560.91
2024-03-06T21:49:26.074Z,95567.16
2024-03-06T21:51:55.481Z,95557.09
2024-03-06T21:54:23.855Z,95560.75
2024-03-06T21:56:54.246Z,95566.53
2024-03-06T21:59:22.541Z,95560.03
2024-03-06T22:01:50.692Z,95568.19
2024-03-06T22:04:18.738Z,95574.16
2024-03-06T22:06:46.791Z,95572.56
2024-03-06T22:09:17.108Z,95566.69
2024-03-06T22:11:46.124Z,95573.94
2024-03-06T22:14:14.998Z,95574.13
2024-03-06T22:16:43.373Z,95568.34
2024-03-06T22:19:11.761Z,95565.69
2024-03-06T22:21:40.066Z,95559.84
2024-03-06T22:24:09.108Z,95568.06
2024-03-06T22:26:39.978Z,95556.59
2024-03-06T22:29:11.288Z,95566.31
2024-03-06T22:31:39.521Z,95566.31
2024-03-06T22:34:07.948Z,95568.41
2024-03-06T22:36:36.092Z,95563.47
2024-03-06T22:39:04.987Z,95564.59
2024-03-06T22:41:33.190Z,95565.44
2024-03-06T22:44:02.647Z,95571.28
2024-03-06T22:46:35.421Z,95574.28
2024-03-06T22:49:09.864Z,95572.28
2024-03-06T22:51:38.150Z,95570.28
2024-03-06T22:54:06.491Z,95570.56
2024-03-06T22:56:37.334Z,95569.06
2024-03-06T22:59:06.779Z,95571.44
2024-03-06T23:01:34.961Z,95571.28
2024-03-06T23:04:04.885Z,95565.34
2024-03-06T23:06:33.216Z,95566.94
2024-03-06T23:09:01.442Z,95569.88
2024-03-06T23:11:31.437Z,95568.75
2024-03-06T23:13:59.517Z,95568.06
2024-03-06T23:16:29.073Z,95565.97
2024-03-06T23:18:58.034Z,95572.75
2024-03-06T23:21:26.463Z,95571.69
2024-03-06T23:23:54.610Z,95574.59
2024-03-06T23:26:22.912Z,95566.59
2024-03-06T23:28:51.000Z,95569.16
2024-03-06T23:31:19.387Z,95565.09
2024-03-06T23:33:48.757Z,95566.19
2024-03-06T23:36:16.805Z,95568.00
2024-03-06T23:38:45.022Z,95562.66
2024-03-06T23:41:14.011Z,95558.00
2024-03-06T23:43:42.731Z,95566.53
2024-03-06T23:46:10.751Z,95561.19
2024-03-06T23:48:38.874Z,95561.06
2024-03-06T23:51:08.294Z,95562.47
2024-03-06T23:53:36.371Z,95566.41
2024-03-06T23:56:05.630Z,95562.06
2024-03-06T23:58:34.442Z,95558.41
